Flight Track Log - Related Links

Times and Time Zones

All times are in EDT time to prevent confusion due to time zone crossing. See the AWI3778 flight status page for this flight to view local times or setup timezone preferences in your user account.

Time Position Orientation Groundspeed Altitude Reporting Facility
EDT Latitude Longitude Course Direction KTS MPH feet Rate Location/Type
Mon 01:34:15 PM 44.4811 -73.2750 234° Southwest 184 212 5,600  Level Boston Center
Mon 01:35:00 PM 44.0758 -73.2964 196° South  Level FlightAware Approximate
Mon 01:35:15 PM 44.4061 -73.2972 192° South 223 257 7,800  Level Boston Center
Mon 01:36:00 PM 43.9783 -73.3354 196° South  Level FlightAware Approximate
Mon 01:36:17 PM 44.3289 -73.3253 195° South 295 339 10,300  Level Boston Center
Mon 01:37:00 PM 43.8807 -73.3738 195° South  Level FlightAware Approximate
Mon 01:37:17 PM 44.2469 -73.3792 205° Southwest 325 374 11,700  Level Boston Center
Mon 01:38:00 PM 43.7827 -73.4100 195° South  Level FlightAware Approximate
Mon 01:38:15 PM 44.1611 -73.4472 210° Southwest 350 403 13,200  Level Boston Center
Mon 01:39:16 PM 44.0686 -73.5208 210° Southwest 382 440 14,700 1,488 Climbing Boston Center
Mon 01:40:16 PM 43.9742 -73.5942 209° Southwest 387 445 16,200 1,700 Climbing Boston Center
Mon 01:41:16 PM 43.8797 -73.6700 210° Southwest 392 451 18,100 1,835 Climbing Boston Center
Mon 01:42:17 PM 43.7850 -73.7428 209° Southwest 392 451 19,900 1,729 Climbing Boston Center
Mon 01:43:14 PM 43.6819 -73.8208 209° Southwest 392 451 21,500 1,627 Climbing Boston Center
Mon 01:44:15 PM 43.5894 -73.8992 212° Southwest 392 451 23,100 1,289 Climbing Boston Center
Mon 01:45:15 PM 43.4947 -73.9683 208° Southwest 392 451 24,100 496 Climbing Boston Center
Mon 01:46:16 PM 43.3958 -74.0431 209° Southwest 398 458 24,100 -50 Level Boston Center
Mon 01:47:16 PM 43.2903 -74.1231 209° Southwest 412 474 24,000 -50 Descending Boston Center
Mon 01:48:16 PM 43.1808 -74.2083 210° Southwest 438 504 24,000  Level Boston Center
Mon 01:49:17 PM 43.0711 -74.2933 210° Southwest 451 519 24,000  Level Boston Center
Mon 01:50:14 PM 42.9569 -74.3806 209° Southwest 456 525 24,000  Level Boston Center
Mon 01:51:15 PM 42.8450 -74.4619 208° Southwest 461 531 24,000  Level Boston Center
Mon 01:52:15 PM 42.7331 -74.5461 209° Southwest 461 531 24,000  Level Boston Center
Mon 01:53:16 PM 42.6211 -74.6325 210° Southwest 467 537 24,000  Level Boston Center
Mon 01:54:16 PM 42.5089 -74.7186 210° Southwest 467 537 24,000  Level Boston Center
Mon 01:55:17 PM 42.3967 -74.7989 208° Southwest 467 537 24,000 -744 Level Boston Center
Mon 01:56:17 PM 42.2886 -74.8819 210° Southwest 461 531 22,500 -1,414 Descending Boston Center
Mon 01:57:54 PM 42.1269 -75.0017 209° Southwest 455 524 20,300 -1,299 Descending New York Center
Mon 01:58:54 PM 42.0261 -75.0872 212° Southwest 441 507 19,100 -645 Descending New York Center
Mon 01:59:55 PM 41.9314 -75.1675 212° Southwest 416 479 19,000 -50 Descending New York Center
Mon 02:00:55 PM 41.8306 -75.2469 210° Southwest 395 455 19,000 -347 Level New York Center
Mon 02:01:56 PM 41.7383 -75.3186 210° Southwest 390 449 18,300 -1,289 Descending New York Center
Mon 02:02:56 PM 41.6589 -75.3853 212° Southwest 390 449 16,400 -1,932 Descending New York Center
Mon 02:03:54 PM 41.5750 -75.4544 212° Southwest 370 426 14,500 -1,983 Descending New York Center
Mon 02:04:54 PM 41.4803 -75.5281 210° Southwest 370 426 12,500 -1,240 Descending New York Center
Mon 02:05:55 PM 41.3964 -75.5969 212° Southwest 364 419 12,000 -246 Descending New York Center
Mon 02:06:56 PM 41.3189 -75.6547 209° Southwest 364 419 12,000  Level New York Center
Mon 02:07:56 PM 41.2175 -75.6917 195° South 347 399 12,000 -100 Level New York Center
Mon 02:08:56 PM 41.1258 -75.6878 178° South 356 410 11,800 -605 Descending New York Center
Mon 02:09:55 PM 41.0228 -75.6636 170° South 368 423 10,800 -900 Descending New York Center
Mon 02:10:56 PM 40.9181 -75.6233 164° South 386 444 10,000 -403 Descending New York Center
Mon 02:11:54 PM 40.8239 -75.5836 162° South 375 432 10,000  Level New York Center
Mon 02:12:55 PM 40.7175 -75.5406 163° South 370 426 10,000  Level New York Center
Mon 02:13:55 PM 40.6211 -75.5011 163° South 364 419 10,000  Level New York Center
Mon 02:14:55 PM 40.5286 -75.4647 163° South 358 412 10,000  Level New York Center
Mon 02:15:56 PM 40.4467 -75.4292 162° South 331 381 10,000 -605 Level New York Center
Mon 02:16:54 PM 40.3736 -75.3778 152° Southeast 301 346 8,800 -1,373 Descending New York Center
Mon 02:17:54 PM 40.3050 -75.3242 149° Southeast 289 333 7,300 -1,350 Descending New York Center
Mon 02:18:54 PM 40.2483 -75.2797 149° Southeast 277 319 6,100 -645 Descending New York Center
Mon 02:19:55 PM 40.1772 -75.2289 151° Southeast 282 325 6,000 -54 Descending New York Center
Mon 02:20:46 PM 40.1167 -75.1833 150° Southeast 273 314 6,000  Level Philadelphia TRACON
Mon 02:21:46 PM 40.0500 -75.1333 150° Southeast 237 273 6,000 -50 Level Philadelphia TRACON
Mon 02:22:46 PM 40.0000 -75.0833 143° Southeast 211 243 5,900 -750 Descending Philadelphia TRACON
Mon 02:23:46 PM 40.0000 -75.0167 90° East 222 255 4,500 -1,000 Descending Philadelphia TRACON
Mon 02:24:46 PM 39.9833 -74.9500 108° East 208 239 3,900 -842 Descending Philadelphia TRACON
Mon 02:25:40 PM 39.9500 -75.0000 229° Southwest 202 232 2,900 -789 Descending Philadelphia TRACON
Mon 02:26:40 PM 39.9167 -75.0500 229° Southwest 180 207 2,400 -619 Descending Philadelphia TRACON
Mon 02:27:46 PM 39.9000 -75.1167 252° West 179 206 1,600 -800 Descending Philadelphia TRACON
Mon 02:28:40 PM 39.9000 -75.1667 270° West 141 162 800 -889 Descending Philadelphia TRACON

Login

Don't have an account? Register now (free) for customized features, flight alerts, and more!